Time;durP1;ratioP1;P1;durP2;ratioP2;P2;SDS_P1;SDS_P2;PMS_P1;PMS_P2;Temp;Humidity;BMP_temperature;BMP_pressure;BME280_temperature;BME280_humidity;BME280_pressure;Samples;Min_cycle;Max_cycle;Signal;HPM_P1;HPM_P2
2022/11/27 00:01:10;;;;;;;;;;;13.20;99.90;;;;;;5012313;28;20068;-64
2022/11/27 00:03:36;;;;;;;0.00;0.00;;;13.30;99.90;;;;;;5004817;28;20013;-64
2022/11/27 00:06:02;;;;;;;0.00;0.00;;;13.20;99.90;;;;;;5011071;28;20971;-64
2022/11/27 00:08:27;;;;;;;0.00;0.00;;;13.30;99.90;;;;;;5001578;28;20068;-63
2022/11/27 00:10:53;;;;;;;0.00;0.00;;;13.30;99.90;;;;;;5007690;28;20456;-63
2022/11/27 00:13:19;;;;;;;0.00;0.00;;;13.20;99.90;;;;;;5010153;28;20072;-63
2022/11/27 00:15:44;;;;;;;0.00;0.00;;;13.30;99.90;;;;;;5011984;28;20025;-63
2022/11/27 00:18:10;;;;;;;0.00;0.00;;;13.30;99.90;;;;;;5010936;28;20088;-64
2022/11/27 00:20:36;;;;;;;0.00;0.00;;;13.40;99.90;;;;;;5010193;28;20099;-63
2022/11/27 00:23:02;;;;;;;0.00;0.00;;;13.40;99.90;;;;;;5012092;28;20038;-65
2022/11/27 00:25:27;;;;;;;0.00;0.00;;;13.40;99.90;;;;;;5012275;28;20038;-64
2022/11/27 00:27:53;;;;;;;0.00;0.00;;;13.40;99.90;;;;;;5011519;28;20391;-63
2022/11/27 00:30:19;;;;;;;0.00;0.00;;;13.50;99.90;;;;;;5011713;28;20037;-64
2022/11/27 00:32:44;;;;;;;0.00;0.00;;;13.50;99.90;;;;;;5013518;28;20029;-63
2022/11/27 00:35:10;;;;;;;0.00;0.00;;;13.40;99.90;;;;;;5010199;28;20488;-63
2022/11/27 00:37:36;;;;;;;0.00;0.00;;;13.30;99.90;;;;;;5009633;28;20026;-63
2022/11/27 00:40:01;;;;;;;0.00;0.00;;;13.30;99.90;;;;;;5015022;28;20034;-63
2022/11/27 00:42:27;;;;;;;0.00;0.00;;;13.30;99.90;;;;;;5013920;28;20041;-63
2022/11/27 00:44:53;;;;;;;0.00;0.00;;;13.30;99.90;;;;;;5015251;28;20121;-64
2022/11/27 00:47:18;;;;;;;0.00;0.00;;;13.30;99.90;;;;;;5014770;28;20554;-63
2022/11/27 00:49:45;;;;;;;0.00;0.00;;;13.40;99.90;;;;;;5015208;28;20102;-64
2022/11/27 00:52:11;;;;;;;0.00;0.00;;;13.40;99.90;;;;;;5015270;28;20036;-63
2022/11/27 00:54:37;;;;;;;;;;;13.40;99.90;;;;;;5015404;28;20061;-63
2022/11/27 00:57:03;;;;;;;0.00;0.00;;;13.30;99.90;;;;;;5013902;28;20384;-64
2022/11/27 00:59:29;;;;;;;0.00;0.00;;;13.40;99.90;;;;;;5013151;28;20025;-63
2022/11/27 01:01:54;;;;;;;0.00;0.00;;;13.50;99.90;;;;;;5014706;28;20053;-63
2022/11/27 01:04:20;;;;;;;0.00;0.00;;;13.50;99.90;;;;;;5008894;28;20030;-63
2022/11/27 01:06:46;;;;;;;0.00;0.00;;;13.50;99.90;;;;;;5014654;28;20048;-63
2022/11/27 01:09:12;;;;;;;0.00;0.00;;;13.50;99.90;;;;;;5010873;28;20760;-64
2022/11/27 01:11:38;;;;;;;0.00;0.00;;;13.50;99.90;;;;;;5012842;28;20188;-63
2022/11/27 01:14:15;;;;;;;0.00;0.00;;;13.50;99.90;;;;;;5001815;28;20034;-63
2022/11/27 01:16:41;;;;;;;;;;;13.50;99.90;;;;;;5014374;28;20034;-64
2022/11/27 01:19:08;;;;;;;0.00;0.00;;;13.50;99.90;;;;;;5008686;28;19914;-63
2022/11/27 01:21:34;;;;;;;0.00;0.00;;;13.40;99.90;;;;;;5012228;28;20029;-63
2022/11/27 01:24:01;;;;;;;0.00;0.00;;;13.40;99.90;;;;;;5009585;28;20451;-63
2022/11/27 01:26:27;;;;;;;0.00;0.00;;;13.40;99.90;;;;;;5012695;28;20040;-63
2022/11/27 01:28:54;;;;;;;0.00;0.00;;;13.40;99.90;;;;;;5003207;28;20033;-64
2022/11/27 01:31:23;;;;;;;0.00;0.00;;;13.50;99.90;;;;;;5013051;28;20108;-64
2022/11/27 01:33:52;;;;;;;0.00;0.00;;;13.60;99.90;;;;;;5011239;28;20403;-64
2022/11/27 01:36:18;;;;;;;0.00;0.00;;;13.60;99.90;;;;;;5007364;28;20105;-63
2022/11/27 01:38:44;;;;;;;0.00;0.00;;;13.60;99.90;;;;;;5011556;28;20112;-64
2022/11/27 01:41:21;;;;;;;0.00;0.00;;;13.60;99.90;;;;;;5013004;28;20065;-64
2022/11/27 01:43:59;;;;;;;0.00;0.00;;;13.60;99.90;;;;;;5009850;28;20035;-64
2022/11/27 01:46:39;;;;;;;0.00;0.00;;;13.50;99.90;;;;;;5012771;28;20060;-63
2022/11/27 01:49:07;;;;;;;0.00;0.00;;;13.60;99.90;;;;;;5010738;28;20033;-64
2022/11/27 01:51:35;;;;;;;0.00;0.00;;;13.60;99.90;;;;;;5012771;28;20095;-64
2022/11/27 01:54:01;;;;;;;0.00;0.00;;;13.60;99.90;;;;;;5009810;28;20550;-64
2022/11/27 01:56:28;;;;;;;0.00;0.00;;;13.60;99.90;;;;;;5013191;28;20030;-64
2022/11/27 01:58:54;;;;;;;;;;;13.60;99.90;;;;;;5013279;28;20398;-63
2022/11/27 02:01:23;;;;;;;0.00;0.00;;;13.60;99.90;;;;;;5011782;28;19916;-63
2022/11/27 02:03:48;;;;;;;0.00;0.00;;;13.70;99.90;;;;;;5012196;28;20054;-64
2022/11/27 02:06:15;;;;;;;0.00;0.00;;;13.70;99.90;;;;;;5010593;28;20040;-64
2022/11/27 02:08:41;;;;;;;0.00;0.00;;;13.60;99.90;;;;;;5006860;28;20045;-64
2022/11/27 02:11:35;;;;;;;0.00;0.00;;;13.60;99.90;;;;;;5012492;28;20065;-63
2022/11/27 02:14:09;;;;;;;0.00;0.00;;;13.60;99.90;;;;;;5002245;28;20034;-64
2022/11/27 02:17:07;;;;;;;0.00;0.00;;;13.50;99.90;;;;;;4998880;28;20037;-64
2022/11/27 02:20:10;;;;;;;0.00;0.00;;;13.50;99.90;;;;;;5005493;28;20522;-64
2022/11/27 02:22:59;;;;;;;0.00;0.00;;;13.50;99.90;;;;;;5012701;28;20041;-64
2022/11/27 02:26:01;;;;;;;0.00;0.00;;;13.50;99.90;;;;;;5008003;28;20392;-63
2022/11/27 02:28:52;;;;;;;0.00;0.00;;;13.40;99.90;;;;;;5009578;28;20022;-63
2022/11/27 02:31:35;;;;;;;0.00;0.00;;;13.40;99.90;;;;;;5009830;28;20026;-64
2022/11/27 02:34:26;;;;;;;0.00;0.00;;;13.40;99.90;;;;;;5010684;28;20026;-64
2022/11/27 02:37:19;;;;;;;0.00;0.00;;;13.40;99.90;;;;;;5006373;28;20033;-64
2022/11/27 02:40:11;;;;;;;0.00;0.00;;;13.40;99.90;;;;;;5003679;28;20037;-64
2022/11/27 02:42:45;;;;;;;0.00;0.00;;;13.40;99.90;;;;;;5008380;28;20022;-64
2022/11/27 02:45:18;;;;;;;0.00;0.00;;;13.40;99.90;;;;;;4997622;28;20030;-64
2022/11/27 02:47:46;;;;;;;0.00;0.00;;;13.30;99.90;;;;;;5008468;28;20329;-64
2022/11/27 02:50:18;;;;;;;0.00;0.00;;;13.30;99.90;;;;;;5012004;28;20113;-63
2022/11/27 02:52:45;;;;;;;0.00;0.00;;;13.40;99.90;;;;;;5007585;28;20034;-63
2022/11/27 02:55:16;;;;;;;0.00;0.00;;;13.40;99.90;;;;;;5008184;28;20033;-64
2022/11/27 02:57:44;;;;;;;0.00;0.00;;;13.40;99.90;;;;;;5011019;28;20029;-64
2022/11/27 03:00:11;;;;;;;0.00;0.00;;;13.40;99.90;;;;;;5013449;28;20341;-64
2022/11/27 03:02:45;;;;;;;0.00;0.00;;;13.40;99.90;;;;;;5012477;28;20475;-63
2022/11/27 03:05:16;;;;;;;0.00;0.00;;;13.40;99.90;;;;;;5009518;28;20045;-64
2022/11/27 03:07:51;;;;;;;0.00;0.00;;;13.50;99.90;;;;;;5012149;28;20029;-64
2022/11/27 03:10:30;;;;;;;0.00;0.00;;;13.40;99.90;;;;;;5010031;28;20026;-64
2022/11/27 03:12:57;;;;;;;0.00;0.00;;;13.40;99.90;;;;;;4998147;28;20018;-65
2022/11/27 03:15:27;;;;;;;0.00;0.00;;;13.40;99.90;;;;;;5012223;28;20022;-64
2022/11/27 03:18:33;;;;;;;0.00;0.00;;;13.40;99.90;;;;;;5006747;28;20031;-64
2022/11/27 03:21:36;;;;;;;0.00;0.00;;;13.50;99.90;;;;;;5003625;28;20189;-64
2022/11/27 03:24:02;;;;;;;0.00;0.00;;;13.50;99.90;;;;;;5006654;28;20069;-64
2022/11/27 03:26:27;;;;;;;0.00;0.00;;;13.40;99.90;;;;;;5003342;28;20033;-63
2022/11/27 03:28:55;;;;;;;0.00;0.00;;;13.50;99.90;;;;;;5001930;28;20037;-63
2022/11/27 03:31:22;;;;;;;0.00;0.00;;;13.50;99.90;;;;;;5012627;28;20084;-64
2022/11/27 03:33:48;;;;;;;0.00;0.00;;;13.40;99.90;;;;;;5008368;28;20387;-63
2022/11/27 03:36:17;;;;;;;0.00;0.00;;;13.40;99.90;;;;;;5011177;28;20030;-64
2022/11/27 03:38:45;;;;;;;0.00;0.00;;;13.40;99.90;;;;;;5011421;28;20117;-64
2022/11/27 03:41:32;;;;;;;0.00;0.00;;;13.40;99.90;;;;;;5010107;28;20033;-63
2022/11/27 03:44:15;;;;;;;0.00;0.00;;;13.40;99.90;;;;;;4999037;28;20034;-64
2022/11/27 03:46:46;;;;;;;0.00;0.00;;;13.30;99.90;;;;;;5006745;28;20030;-64
2022/11/27 03:49:45;;;;;;;0.00;0.00;;;13.30;99.90;;;;;;5007597;28;20076;-64
2022/11/27 03:52:37;;;;;;;0.00;0.00;;;13.30;99.90;;;;;;5004280;28;20040;-64
2022/11/27 03:55:24;;;;;;;0.00;0.00;;;13.30;99.90;;;;;;5000319;28;20216;-64
2022/11/27 03:58:08;;;;;;;0.00;0.00;;;13.30;99.90;;;;;;5010623;28;20030;-64
2022/11/27 04:00:39;;;;;;;0.00;0.00;;;13.40;99.90;;;;;;4999506;28;20042;-64
2022/11/27 04:03:09;;;;;;;0.00;0.00;;;13.40;99.90;;;;;;5010018;28;20281;-64
2022/11/27 04:05:36;;;;;;;0.00;0.00;;;13.30;99.90;;;;;;5002073;28;20045;-63
2022/11/27 04:08:02;;;;;;;0.00;0.00;;;13.30;99.90;;;;;;5006367;28;20076;-64
2022/11/27 04:10:28;;;;;;;0.00;0.00;;;13.30;99.90;;;;;;5014815;28;20057;-64
2022/11/27 04:12:53;;;;;;;0.00;0.00;;;13.30;99.90;;;;;;5013631;28;20208;-64
2022/11/27 04:15:19;;;;;;;0.00;0.00;;;13.40;99.90;;;;;;5016736;28;20526;-63
2022/11/27 04:17:45;;;;;;;0.00;0.00;;;13.40;99.90;;;;;;5011643;28;20065;-64
2022/11/27 04:20:19;;;;;;;0.00;0.00;;;13.40;99.90;;;;;;5016863;28;20499;-64
2022/11/27 04:22:45;;;;;;;0.00;0.00;;;13.30;99.90;;;;;;5012633;28;20129;-64
2022/11/27 04:25:11;;;;;;;0.00;0.00;;;13.30;99.90;;;;;;5014899;28;20434;-64
2022/11/27 04:27:36;;;;;;;0.00;0.00;;;13.30;99.90;;;;;;5014759;28;20493;-65
2022/11/27 04:30:03;;;;;;;0.00;0.00;;;13.30;99.90;;;;;;5013330;28;20022;-64
2022/11/27 04:32:28;;;;;;;0.00;0.00;;;13.30;99.90;;;;;;5013279;28;20092;-64
2022/11/27 04:34:54;;;;;;;0.00;0.00;;;13.30;99.90;;;;;;5011977;28;20160;-64
2022/11/27 04:37:19;;;;;;;0.00;0.00;;;13.20;99.90;;;;;;5012360;28;20044;-65
2022/11/27 04:39:45;;;;;;;0.00;0.00;;;13.20;99.90;;;;;;5014122;28;20026;-65
2022/11/27 04:42:10;;;;;;;0.00;0.00;;;13.20;99.90;;;;;;5013551;28;20045;-64
2022/11/27 04:44:36;;;;;;;0.00;0.00;;;13.10;99.90;;;;;;5014964;28;20034;-64
2022/11/27 04:47:02;;;;;;;0.00;0.00;;;13.20;99.90;;;;;;5014131;28;20084;-64
2022/11/27 04:49:27;;;;;;;0.00;0.00;;;13.20;99.90;;;;;;5009886;28;20084;-64
2022/11/27 04:51:53;;;;;;;0.00;0.00;;;13.10;99.90;;;;;;5011279;28;20476;-64
2022/11/27 04:54:19;;;;;;;0.00;0.00;;;13.10;99.90;;;;;;5010447;28;20528;-64
2022/11/27 04:56:44;;;;;;;0.00;0.00;;;13.10;99.90;;;;;;5013734;28;20172;-65
2022/11/27 04:59:10;;;;;;;0.00;0.00;;;13.10;99.90;;;;;;5012536;28;20440;-65
2022/11/27 05:01:35;;;;;;;0.00;0.00;;;13.20;99.90;;;;;;5014513;28;20033;-64
2022/11/27 05:04:01;;;;;;;0.00;0.00;;;13.20;99.90;;;;;;5012947;28;20488;-64
2022/11/27 05:06:27;;;;;;;0.00;0.00;;;13.20;99.90;;;;;;5014122;28;20500;-65
2022/11/27 05:09:00;;;;;;;0.00;0.00;;;13.20;99.90;;;;;;5008439;28;20073;-65
2022/11/27 05:11:30;;;;;;;0.00;0.00;;;13.20;99.90;;;;;;5011884;28;20424;-64
2022/11/27 05:14:14;;;;;;;0.00;0.00;;;13.20;99.90;;;;;;5012228;28;20026;-64
2022/11/27 05:16:47;;;;;;;0.00;0.00;;;13.20;99.90;;;;;;5013457;28;20025;-64
2022/11/27 05:19:13;;;;;;;0.00;0.00;;;13.20;99.90;;;;;;5009479;28;20099;-65
2022/11/27 05:21:40;;;;;;;0.00;0.00;;;13.20;99.90;;;;;;5009654;28;20053;-64
2022/11/27 05:24:06;;;;;;;0.00;0.00;;;13.10;99.90;;;;;;5009707;28;20026;-64
2022/11/27 05:26:32;;;;;;;0.00;0.00;;;12.90;99.90;;;;;;5010082;28;20061;-64
2022/11/27 05:28:59;;;;;;;0.00;0.00;;;12.80;99.90;;;;;;5008370;28;20109;-64
2022/11/27 05:31:25;;;;;;;0.00;0.00;;;12.80;99.90;;;;;;5012806;28;20034;-64
2022/11/27 05:33:51;;;;;;;0.00;0.00;;;12.80;99.90;;;;;;5015043;28;20026;-64
2022/11/27 05:36:16;;;;;;;0.00;0.00;;;12.80;99.90;;;;;;5014071;28;20041;-64
2022/11/27 05:38:42;;;;;;;0.00;0.00;;;12.80;99.90;;;;;;5003550;28;20034;-64
2022/11/27 05:41:09;;;;;;;0.00;0.00;;;12.90;99.90;;;;;;5012715;28;20045;-64
2022/11/27 05:43:35;;;;;;;0.00;0.00;;;12.90;99.90;;;;;;5000467;28;20034;-64
2022/11/27 05:46:08;;;;;;;0.00;0.00;;;12.90;99.90;;;;;;5012571;28;20040;-64
2022/11/27 05:48:35;;;;;;;0.00;0.00;;;12.90;99.90;;;;;;5008120;28;20033;-64
2022/11/27 05:51:00;;;;;;;0.00;0.00;;;12.80;99.90;;;;;;5011410;28;20022;-64
2022/11/27 05:53:26;;;;;;;0.00;0.00;;;12.90;99.90;;;;;;5010747;28;20388;-64
2022/11/27 05:55:52;;;;;;;0.00;0.00;;;12.80;99.90;;;;;;5007760;28;20038;-65
2022/11/27 05:58:17;;;;;;;0.00;0.00;;;12.90;99.90;;;;;;5012312;28;20033;-64
2022/11/27 06:00:44;;;;;;;0.00;0.00;;;12.90;99.90;;;;;;5011253;28;20034;-65
2022/11/27 06:03:09;;;;;;;0.00;0.00;;;12.80;99.90;;;;;;5011108;28;20026;-64
2022/11/27 06:05:39;;;;;;;0.00;0.00;;;12.90;99.90;;;;;;5005720;28;20488;-64
2022/11/27 06:08:05;;;;;;;0.00;0.00;;;12.80;99.90;;;;;;5014836;28;20686;-64
2022/11/27 06:10:31;;;;;;;0.00;0.00;;;12.80;99.90;;;;;;5012030;28;20033;-64
2022/11/27 06:12:56;;;;;;;0.00;0.00;;;12.90;99.90;;;;;;5012163;28;20496;-64
2022/11/27 06:15:22;;;;;;;0.00;0.00;;;12.80;99.90;;;;;;5010592;28;20026;-65
2022/11/27 06:17:48;;;;;;;0.00;0.00;;;12.80;99.90;;;;;;5003151;28;20472;-65
2022/11/27 06:20:14;;;;;;;0.00;0.00;;;12.80;99.90;;;;;;5010263;28;20057;-63
2022/11/27 06:22:40;;;;;;;0.00;0.00;;;12.80;99.90;;;;;;5007023;28;20433;-65
2022/11/27 06:25:06;;;;;;;0.00;0.00;;;12.70;99.90;;;;;;5007671;28;20476;-65
2022/11/27 06:27:33;;;;;;;0.00;0.00;;;12.70;99.90;;;;;;5007601;28;20330;-65
2022/11/27 06:29:58;;;;;;;0.00;0.00;;;12.70;99.90;;;;;;5003796;28;20494;-65
2022/11/27 06:32:24;;;;;;;0.00;0.00;;;12.60;99.90;;;;;;5009403;28;20038;-65
2022/11/27 06:34:50;;;;;;;0.00;0.00;;;12.60;99.90;;;;;;5010194;28;20026;-65
2022/11/27 06:37:15;;;;;;;0.00;0.00;;;12.60;99.90;;;;;;5011315;28;20034;-64
2022/11/27 06:39:41;;;;;;;0.00;0.00;;;12.70;99.90;;;;;;5023680;28;20026;-65
2022/11/27 06:42:06;;;;;;;0.00;0.00;;;12.60;99.90;;;;;;5011879;28;20030;-64
2022/11/27 06:44:32;;;;;;;0.00;0.00;;;12.60;99.90;;;;;;4999673;28;20035;-64
2022/11/27 06:46:57;;;;;;;0.00;0.00;;;12.60;99.90;;;;;;5008900;28;20092;-64
2022/11/27 06:49:23;;;;;;;0.00;0.00;;;12.60;99.90;;;;;;5000938;28;20476;-64
2022/11/27 06:51:49;;;;;;;0.00;0.00;;;12.60;99.90;;;;;;5004227;28;20041;-64
2022/11/27 06:54:15;;;;;;;0.00;0.00;;;12.60;99.90;;;;;;5010123;28;20463;-65
2022/11/27 06:56:41;;;;;;;0.00;0.00;;;12.50;99.90;;;;;;5011603;28;20034;-64
2022/11/27 06:59:11;;;;;;;0.00;0.00;;;12.40;99.90;;;;;;5011001;28;20167;-64
2022/11/27 07:01:37;;;;;;;0.00;0.00;;;12.40;99.90;;;;;;5011258;28;20029;-64
2022/11/27 07:04:03;;;;;;;0.00;0.00;;;12.40;99.90;;;;;;5005008;28;20398;-64
2022/11/27 07:06:28;;;;;;;0.00;0.00;;;12.40;99.90;;;;;;5002649;28;20045;-65
2022/11/27 07:08:54;;;;;;;0.00;0.00;;;12.30;99.90;;;;;;5017453;28;20087;-64
2022/11/27 07:11:23;;;;;;;0.00;0.00;;;12.30;99.90;;;;;;5010877;28;20062;-65
2022/11/27 07:13:50;;;;;;;0.00;0.00;;;12.30;99.90;;;;;;5007782;28;20022;-63
2022/11/27 07:16:17;;;;;;;0.00;0.00;;;12.20;99.90;;;;;;5011235;28;20090;-64
2022/11/27 07:18:45;;;;;;;0.00;0.00;;;12.20;99.90;;;;;;5002924;28;20030;-66
2022/11/27 07:21:11;;;;;;;0.00;0.00;;;12.20;99.90;;;;;;4998601;28;20030;-65
2022/11/27 07:23:37;;;;;;;;;;;12.00;99.90;;;;;;5006086;28;20085;-64
2022/11/27 07:26:09;;;;;;;0.00;0.00;;;12.00;99.90;;;;;;5003097;28;19913;-65
2022/11/27 07:28:35;;;;;;;0.00;0.00;;;11.90;99.90;;;;;;4995351;28;20096;-65
2022/11/27 07:31:01;;;;;;;0.00;0.00;;;11.90;99.90;;;;;;5009845;28;20026;-64
2022/11/27 07:33:27;;;;;;;0.00;0.00;;;12.00;99.90;;;;;;5004377;28;20497;-64
2022/11/27 07:36:05;;;;;;;0.00;0.00;;;12.10;99.90;;;;;;5011851;28;20029;-64
2022/11/27 07:38:31;;;;;;;0.00;0.00;;;12.00;99.90;;;;;;5005461;28;20069;-65
2022/11/27 07:41:01;;;;;;;0.00;0.00;;;11.90;99.90;;;;;;5006318;28;20056;-65
2022/11/27 07:43:27;;;;;;;0.00;0.00;;;11.90;99.90;;;;;;5008278;28;20088;-64
2022/11/27 07:45:53;;;;;;;;;;;11.80;99.90;;;;;;5006226;28;20026;-64
2022/11/27 07:48:18;;;;;;;0.00;0.00;;;11.70;99.90;;;;;;4999515;28;19916;-64
2022/11/27 07:50:44;;;;;;;0.00;0.00;;;11.70;99.90;;;;;;5003872;28;20471;-65
2022/11/27 07:53:10;;;;;;;0.00;0.00;;;11.70;99.90;;;;;;5010653;28;20029;-64
2022/11/27 07:55:40;;;;;;;0.00;0.00;;;11.70;99.90;;;;;;5009013;28;20095;-64
2022/11/27 07:58:07;;;;;;;0.00;0.00;;;11.50;99.90;;;;;;5006630;28;20034;-64
2022/11/27 08:00:33;;;;;;;0.00;0.00;;;11.50;99.90;;;;;;5008886;28;20037;-65
2022/11/27 08:02:59;;;;;;;0.00;0.00;;;11.50;99.90;;;;;;5014877;28;20377;-65
2022/11/27 08:05:25;;;;;;;;;;;11.50;99.90;;;;;;5010447;28;20034;-64
2022/11/27 08:07:50;;;;;;;0.00;0.00;;;11.40;99.90;;;;;;5011469;28;19910;-65
2022/11/27 08:10:16;;;;;;;0.00;0.00;;;11.40;99.90;;;;;;5011224;28;20432;-65
2022/11/27 08:12:42;;;;;;;0.00;0.00;;;11.40;99.90;;;;;;5011752;28;20037;-64
2022/11/27 08:15:08;;;;;;;0.00;0.00;;;11.50;99.90;;;;;;5007567;28;20476;-65
2022/11/27 08:17:34;;;;;;;0.00;0.00;;;11.50;99.90;;;;;;5011315;28;20037;-65
2022/11/27 08:20:00;;;;;;;0.00;0.00;;;11.50;99.90;;;;;;5009254;28;20033;-64
2022/11/27 08:22:26;;;;;;;0.00;0.00;;;11.60;99.90;;;;;;5007637;28;20041;-65
2022/11/27 08:24:51;;;;;;;0.00;0.00;;;11.60;99.90;;;;;;4998683;28;20038;-64
2022/11/27 08:27:17;;;;;;;0.00;0.00;;;11.60;99.90;;;;;;5006322;28;20053;-65
2022/11/27 08:29:43;;;;;;;0.00;0.00;;;11.40;99.90;;;;;;5012686;28;20065;-66
2022/11/27 08:32:09;;;;;;;0.00;0.00;;;11.40;99.90;;;;;;5002601;28;20034;-64
2022/11/27 08:34:35;;;;;;;0.00;0.00;;;11.30;99.90;;;;;;5008505;28;20034;-65
2022/11/27 08:37:02;;;;;;;;;;;11.30;99.90;;;;;;5008863;28;20062;-65
2022/11/27 08:39:28;;;;;;;0.00;0.00;;;11.30;99.90;;;;;;5008470;28;19920;-64
2022/11/27 08:41:53;;;;;;;0.00;0.00;;;11.30;99.90;;;;;;5007020;28;20030;-65
2022/11/27 08:44:19;;;;;;;0.00;0.00;;;11.30;99.90;;;;;;5013913;28;20030;-64
2022/11/27 08:46:45;;;;;;;0.00;0.00;;;11.30;99.90;;;;;;4999901;28;20071;-65
2022/11/27 08:49:10;;;;;;;0.00;0.00;;;11.30;99.90;;;;;;5004953;28;20041;-66
2022/11/27 08:51:36;;;;;;;0.00;0.00;;;11.30;99.90;;;;;;5010159;28;20034;-65
2022/11/27 08:54:02;;;;;;;0.00;0.00;;;11.30;99.90;;;;;;5012529;28;20022;-65
2022/11/27 08:56:28;;;;;;;0.00;0.00;;;11.30;99.90;;;;;;5000589;28;20491;-64
2022/11/27 08:58:54;;;;;;;;;;;11.30;99.90;;;;;;5011214;28;20029;-64
2022/11/27 09:01:26;;;;;;;0.00;0.00;;;11.30;99.90;;;;;;5006679;28;20059;-64
2022/11/27 09:03:52;;;;;;;0.00;0.00;;;11.40;99.90;;;;;;5012684;28;20097;-64
2022/11/27 09:06:21;;;;;;;0.00;0.00;;;11.40;99.90;;;;;;5000042;28;20526;-64
2022/11/27 09:08:47;;;;;;;0.00;0.00;;;11.30;99.90;;;;;;5013336;28;20401;-63
2022/11/27 09:11:15;;;;;;;0.00;0.00;;;11.40;99.90;;;;;;5005863;28;20033;-64
2022/11/27 09:13:42;;;;;;;0.00;0.00;;;11.40;99.90;;;;;;5013124;28;20042;-65
2022/11/27 09:16:13;;;;;;;0.00;0.00;;;11.30;99.90;;;;;;5009289;28;20057;-64
2022/11/27 09:18:39;;;;;;;0.00;0.00;;;11.50;99.90;;;;;;5008368;28;20171;-64
2022/11/27 09:21:07;;;;;;;0.00;0.00;;;11.50;99.90;;;;;;5016377;28;20029;-64
2022/11/27 09:23:34;;;;;;;0.00;0.00;;;11.50;99.90;;;;;;5011194;28;20053;-65
2022/11/27 09:26:02;;;;;;;0.00;0.00;;;11.40;99.90;;;;;;5012777;28;20037;-65
2022/11/27 09:28:28;;;;;;;0.00;0.00;;;11.30;99.90;;;;;;5012265;28;20127;-66
2022/11/27 09:30:55;;;;;;;0.00;0.00;;;11.40;99.90;;;;;;5014049;28;20466;-65
2022/11/27 09:33:22;;;;;;;0.00;0.00;;;11.40;99.90;;;;;;5012643;28;20064;-66
2022/11/27 09:35:48;;;;;;;0.00;0.00;;;11.50;99.90;;;;;;5012435;28;20029;-66
2022/11/27 09:38:13;;;;;;;0.00;0.00;;;11.50;99.90;;;;;;5012900;28;20168;-66
2022/11/27 09:40:48;;;;;;;0.00;0.00;;;11.50;99.90;;;;;;5012297;28;20322;-65
2022/11/27 09:43:17;;;;;;;0.00;0.00;;;11.50;99.90;;;;;;5014063;28;20437;-64
2022/11/27 09:45:49;;;;;;;0.00;0.00;;;11.50;99.90;;;;;;5013994;28;20080;-65
2022/11/27 09:48:21;;;;;;;0.00;0.00;;;11.60;99.90;;;;;;5014006;28;20115;-66
2022/11/27 09:50:51;;;;;;;0.00;0.00;;;11.60;99.90;;;;;;5011047;28;20066;-65
2022/11/27 09:53:24;;;;;;;0.00;0.00;;;11.70;99.90;;;;;;5009891;28;20175;-64
2022/11/27 09:55:55;;;;;;;0.00;0.00;;;11.80;99.90;;;;;;5009464;28;20052;-65
2022/11/27 09:58:35;;;;;;;0.00;0.00;;;11.80;99.90;;;;;;5011205;28;20374;-65
2022/11/27 10:01:10;;;;;;;0.00;0.00;;;11.90;99.90;;;;;;5011952;28;20488;-65
2022/11/27 10:03:41;;;;;;;0.00;0.00;;;12.00;99.90;;;;;;5012866;28;20099;-65
2022/11/27 10:06:37;;;;;;;0.00;0.00;;;12.20;99.90;;;;;;5012249;28;20042;-65
2022/11/27 10:09:12;;;;;;;0.00;0.00;;;12.30;99.90;;;;;;5011482;28;20030;-65
2022/11/27 10:12:13;;;;;;;0.00;0.00;;;12.40;99.90;;;;;;5012010;28;20040;-64
2022/11/27 10:15:26;;;;;;;0.00;0.00;;;12.60;99.90;;;;;;5008908;28;20157;-65
2022/11/27 10:17:54;;;;;;;0.00;0.00;;;12.70;99.90;;;;;;5009933;28;20041;-65
2022/11/27 10:20:30;;;;;;;0.00;0.00;;;12.80;99.90;;;;;;5012256;28;20026;-64
2022/11/27 10:23:04;;;;;;;0.00;0.00;;;12.90;99.90;;;;;;5012759;28;20022;-65
2022/11/27 10:25:49;;;;;;;0.00;0.00;;;12.90;99.90;;;;;;5013062;28;20060;-65
2022/11/27 10:28:56;;;;;;;0.00;0.00;;;13.00;99.90;;;;;;5012007;28;20032;-65
2022/11/27 10:31:53;;;;;;;0.00;0.00;;;13.00;99.90;;;;;;5017742;28;20121;-67
2022/11/27 10:34:27;;;;;;;0.00;0.00;;;13.20;99.90;;;;;;5007194;28;20033;-64
2022/11/27 10:36:55;;;;;;;0.00;0.00;;;13.40;99.90;;;;;;5012918;28;20357;-65
2022/11/27 10:39:29;;;;;;;0.00;0.00;;;13.50;99.90;;;;;;5012960;28;20026;-65
2022/11/27 10:42:30;;;;;;;0.00;0.00;;;13.50;99.90;;;;;;5011563;28;20026;-65
2022/11/27 10:45:05;;;;;;;0.00;0.00;;;13.50;99.90;;;;;;5002457;28;20042;-66
2022/11/27 10:47:31;;;;;;;0.00;0.00;;;13.70;99.90;;;;;;5004178;28;20054;-66
2022/11/27 10:49:58;;;;;;;0.00;0.00;;;13.80;99.90;;;;;;5005614;28;20112;-66
2022/11/27 10:52:24;;;;;;;0.00;0.00;;;13.90;99.90;;;;;;5011571;28;20038;-65
2022/11/27 10:54:53;;;;;;;;;;;14.00;99.90;;;;;;5005348;28;20037;-65
2022/11/27 10:58:10;;;;;;;0.00;0.00;;;14.00;99.90;;;;;;4987775;28;19952;-65
2022/11/27 11:00:36;;;;;;;0.00;0.00;;;14.10;99.90;;;;;;5019156;28;20068;-64
2022/11/27 11:03:06;;;;;;;0.00;0.00;;;14.20;99.90;;;;;;5006763;28;20046;-66
2022/11/27 11:05:33;;;;;;;0.00;0.00;;;14.20;99.90;;;;;;5006771;28;20037;-67
2022/11/27 11:08:03;;;;;;;0.00;0.00;;;14.30;99.90;;;;;;5006275;28;20345;-66
2022/11/27 11:10:42;;;;;;;0.00;0.00;;;14.40;99.90;;;;;;5003147;28;20105;-66
2022/11/27 11:13:10;;;;;;;0.00;0.00;;;14.40;99.90;;;;;;5007496;28;20351;-66
2022/11/27 11:15:56;;;;;;;0.00;0.00;;;14.50;99.90;;;;;;5006107;28;20076;-67
2022/11/27 11:18:28;;;;;;;0.00;0.00;;;14.40;99.90;;;;;;5006142;28;20519;-66
2022/11/27 11:20:57;;;;;;;0.00;0.00;;;14.20;99.90;;;;;;5006190;28;20451;-66
2022/11/27 11:23:29;;;;;;;0.00;0.00;;;14.10;99.90;;;;;;5006932;28;20032;-66
2022/11/27 11:25:58;;;;;;;0.00;0.00;;;14.10;99.90;;;;;;5004477;28;20044;-65
2022/11/27 11:28:25;;;;;;;0.00;0.00;;;14.00;99.90;;;;;;5003417;28;20396;-65
2022/11/27 11:31:12;;;;;;;0.00;0.00;;;13.90;99.90;;;;;;4986235;28;20195;-65
2022/11/27 11:33:51;;;;;;;0.00;0.00;;;13.80;99.90;;;;;;5006920;28;20061;-65
2022/11/27 11:36:17;;;;;;;0.00;0.00;;;13.90;99.90;;;;;;5004876;28;20037;-65
2022/11/27 11:38:45;;;;;;;0.00;0.00;;;13.90;99.90;;;;;;5002331;28;20022;-65
2022/11/27 11:41:12;;;;;;;0.00;0.00;;;14.00;99.90;;;;;;5005298;28;20182;-66
2022/11/27 11:43:38;;;;;;;0.00;0.00;;;14.00;99.90;;;;;;5001544;28;20018;-65
2022/11/27 11:46:07;;;;;;;;;;;13.90;99.90;;;;;;5005029;28;20022;-65
2022/11/27 11:48:33;;;;;;;0.00;0.00;;;13.80;99.90;;;;;;5004425;28;20219;-65
2022/11/27 11:51:01;;;;;;;0.00;0.00;;;13.70;99.90;;;;;;5004593;28;20036;-65
2022/11/27 11:53:35;;;;;;;0.00;0.00;;;13.50;99.90;;;;;;5001191;28;20023;-66
2022/11/27 11:56:23;;;;;;;0.00;0.00;;;13.60;99.90;;;;;;5003960;28;20033;-65
2022/11/27 11:59:27;;;;;;;0.00;0.00;;;13.70;99.90;;;;;;5005228;28;20594;-66
2022/11/27 12:02:17;;;;;;;0.00;0.00;;;13.70;99.90;;;;;;5004873;28;20157;-66
2022/11/27 12:05:05;;;;;;;0.00;0.00;;;13.80;99.90;;;;;;5004077;28;20580;-66
2022/11/27 12:07:48;;;;;;;0.00;0.00;;;13.80;99.90;;;;;;5002786;28;20403;-65
2022/11/27 12:10:24;;;;;;;0.00;0.00;;;13.90;99.90;;;;;;4999707;28;20488;-66
2022/11/27 12:12:59;;;;;;;0.00;0.00;;;13.80;99.90;;;;;;5001988;28;20579;-66
2022/11/27 12:15:40;;;;;;;0.00;0.00;;;13.80;99.90;;;;;;5003547;28;20026;-67
2022/11/27 12:18:21;;;;;;;0.00;0.00;;;13.60;99.90;;;;;;5004035;28;20033;-66
2022/11/27 12:20:53;;;;;;;0.00;0.00;;;13.80;99.90;;;;;;5001916;28;20491;-66
2022/11/27 12:23:35;;;;;;;0.00;0.00;;;13.80;99.90;;;;;;5003546;28;20324;-67
2022/11/27 12:26:21;;;;;;;0.00;0.00;;;13.60;99.90;;;;;;5006206;28;20109;-66
2022/11/27 12:28:53;;;;;;;0.00;0.00;;;13.70;99.90;;;;;;5008417;28;20137;-66
2022/11/27 12:31:41;;;;;;;0.00;0.00;;;13.60;99.90;;;;;;5008254;28;20060;-67
2022/11/27 12:34:31;;;;;;;0.00;0.00;;;13.70;99.90;;;;;;5002968;28;20431;-64
2022/11/27 12:37:21;;;;;;;0.00;0.00;;;13.80;99.90;;;;;;5003434;28;20127;-66
2022/11/27 12:39:46;;;;;;;0.00;0.00;;;13.80;99.90;;;;;;5002586;28;20105;-65
2022/11/27 12:42:40;;;;;;;0.00;0.00;;;13.90;99.90;;;;;;5008385;28;20033;-64
2022/11/27 12:45:26;;;;;;;0.00;0.00;;;13.70;99.90;;;;;;5002111;28;20042;-65
2022/11/27 12:48:00;;;;;;;0.00;0.00;;;13.70;99.90;;;;;;5007941;28;20045;-65
2022/11/27 12:50:47;;;;;;;0.00;0.00;;;13.70;99.90;;;;;;5008404;28;20045;-65
2022/11/27 12:53:32;;;;;;;0.00;0.00;;;13.80;99.90;;;;;;5005318;28;20049;-64
2022/11/27 12:56:23;;;;;;;0.00;0.00;;;13.90;99.90;;;;;;5004718;28;20124;-66
2022/11/27 12:59:10;;;;;;;0.00;0.00;;;13.90;99.90;;;;;;5008977;28;20068;-65
2022/11/27 13:01:42;;;;;;;0.00;0.00;;;14.00;99.90;;;;;;5005523;28;20358;-66
2022/11/27 13:04:22;;;;;;;0.00;0.00;;;14.00;99.90;;;;;;5003992;28;20034;-65
2022/11/27 13:07:08;;;;;;;0.00;0.00;;;14.10;99.90;;;;;;5004639;28;20042;-65
2022/11/27 13:09:46;;;;;;;0.00;0.00;;;14.00;99.90;;;;;;5004359;28;20426;-66
2022/11/27 13:12:21;;;;;;;0.00;0.00;;;14.00;99.90;;;;;;5020874;28;20022;-65